createdAt,value
2022-08-05T00:02:14.737Z,12.20
2022-08-05T00:04:55.542Z,11.65
2022-08-05T00:07:58.807Z,12.82
2022-08-05T00:09:57.749Z,12.80
2022-08-05T00:12:31.424Z,12.28
2022-08-05T00:15:54.007Z,13.10
2022-08-05T00:17:39.830Z,13.25
2022-08-05T00:20:14.487Z,14.40
2022-08-05T00:22:59.603Z,15.68
2022-08-05T00:25:23.328Z,16.32
2022-08-05T00:27:56.093Z,16.45
2022-08-05T00:30:32.039Z,19.70
2022-08-05T00:33:03.932Z,19.25
2022-08-05T00:35:37.534Z,20.00
2022-08-05T00:38:11.926Z,18.23
2022-08-05T00:40:54.387Z,19.98
2022-08-05T00:43:27.243Z,19.75
2022-08-05T00:46:02.066Z,19.15
2022-08-05T00:48:35.968Z,18.70
2022-08-05T00:51:50.235Z,19.45
2022-08-05T00:54:02.319Z,20.40
2022-08-05T00:56:20.474Z,21.00
2022-08-05T00:58:54.965Z,20.50
2022-08-05T01:01:48.246Z,19.77
2022-08-05T01:04:13.770Z,21.10
2022-08-05T01:06:40.732Z,21.10
2022-08-05T01:09:15.512Z,21.40
2022-08-05T01:11:52.516Z,22.80
2022-08-05T01:14:43.134Z,23.62
2022-08-05T01:17:32.221Z,24.52
2022-08-05T01:20:33.879Z,24.60
2022-08-05T01:23:43.004Z,24.72
2022-08-05T01:26:28.089Z,25.00
2022-08-05T01:29:23.031Z,25.97
2022-08-05T01:31:58.541Z,27.37
2022-08-05T01:34:39.884Z,26.73
2022-08-05T01:37:32.724Z,26.12
2022-08-05T01:40:08.154Z,27.27
2022-08-05T01:42:43.562Z,28.42
2022-08-05T01:45:18.136Z,27.32
2022-08-05T01:47:54.546Z,26.48
2022-08-05T01:50:38.123Z,26.90
2022-08-05T01:53:17.160Z,27.60
2022-08-05T01:55:52.864Z,26.77
2022-08-05T01:58:41.036Z,26.60
2022-08-05T02:01:04.923Z,27.00
2022-08-05T02:03:45.299Z,26.02
2022-08-05T02:06:38.431Z,25.97
2022-08-05T02:08:58.327Z,24.63
2022-08-05T02:11:33.184Z,22.07
2022-08-05T02:14:13.642Z,21.70
2022-08-05T02:16:55.715Z,22.20
2022-08-05T02:19:40.587Z,26.30
2022-08-05T02:22:26.618Z,26.65
2022-08-05T02:25:06.589Z,25.55
2022-08-05T02:27:58.927Z,24.92
2022-08-05T02:30:17.037Z,26.45
2022-08-05T02:32:52.855Z,28.10
2022-08-05T02:35:37.454Z,26.73
2022-08-05T02:38:03.215Z,27.20
2022-08-05T02:40:36.612Z,24.27
2022-08-05T02:43:09.547Z,24.23
2022-08-05T02:45:52.519Z,23.07
2022-08-05T02:48:19.764Z,22.77
2022-08-05T02:50:54.939Z,22.20
2022-08-05T02:56:02.904Z,21.57
2022-08-05T02:58:43.748Z,21.07
2022-08-05T03:01:27.318Z,20.40
2022-08-05T03:06:54.482Z,22.15
2022-08-05T03:09:17.843Z,21.97
2022-08-05T03:11:55.421Z,20.95
2022-08-05T03:14:26.335Z,20.82
2022-08-05T03:16:59.287Z,19.87
2022-08-05T03:19:34.513Z,20.27
2022-08-05T03:22:16.760Z,21.68
2022-08-05T03:24:42.495Z,18.02
2022-08-05T03:27:17.281Z,19.95
2022-08-05T03:30:08.049Z,19.60
2022-08-05T03:32:30.924Z,19.48
2022-08-05T03:34:59.896Z,22.60
2022-08-05T03:40:11.989Z,21.87
2022-08-05T03:42:52.450Z,23.27
2022-08-05T03:45:21.386Z,22.15
2022-08-05T03:47:56.856Z,22.27
2022-08-05T03:50:35.870Z,21.85
2022-08-05T03:55:51.843Z,19.98
2022-08-05T03:56:10.395Z,19.98
2022-08-05T03:58:38.108Z,19.20
2022-08-05T04:01:13.448Z,17.45
2022-08-05T04:04:10.190Z,18.92
2022-08-05T04:06:22.518Z,16.95
2022-08-05T04:08:57.462Z,18.73
2022-08-05T04:11:47.387Z,20.45
2022-08-05T04:14:07.424Z,20.97
2022-08-05T04:16:40.727Z,22.40
2022-08-05T04:19:14.859Z,23.65
2022-08-05T04:22:10.163Z,23.07
2022-08-05T04:24:23.671Z,23.05
2022-08-05T04:26:58.331Z,22.07
2022-08-05T04:29:32.239Z,21.15
2022-08-05T04:32:05.838Z,21.70
2022-08-05T04:34:42.898Z,20.95
2022-08-05T04:37:14.850Z,20.20
2022-08-05T04:39:52.946Z,19.77
2022-08-05T04:42:25.428Z,20.32
2022-08-05T04:44:58.483Z,16.30
2022-08-05T04:47:38.620Z,17.23
2022-08-05T04:50:11.614Z,18.75
2022-08-05T04:52:42.341Z,18.85
2022-08-05T04:55:17.189Z,17.70
2022-08-05T04:57:54.261Z,19.27
2022-08-05T05:00:26.177Z,18.35
2022-08-05T05:03:03.670Z,17.25
2022-08-05T05:05:34.935Z,17.48
2022-08-05T05:08:14.436Z,14.20
2022-08-05T05:10:56.303Z,12.40
2022-08-05T05:13:22.703Z,11.45
2022-08-05T05:15:59.523Z,11.65
2022-08-05T05:18:33.731Z,12.25
2022-08-05T05:21:05.641Z,11.80
2022-08-05T05:24:03.721Z,10.45
2022-08-05T05:26:13.468Z,10.60
2022-08-05T05:28:49.380Z,9.90
2022-08-05T05:31:22.391Z,10.30
2022-08-05T05:33:59.663Z,9.75
2022-08-05T05:36:32.480Z,9.50
2022-08-05T05:39:10.956Z,10.10
2022-08-05T05:41:41.936Z,10.28
2022-08-05T05:44:36.897Z,9.95
2022-08-05T05:46:49.611Z,9.80
2022-08-05T05:49:24.096Z,10.00
2022-08-05T05:51:57.588Z,10.08
2022-08-05T05:54:49.723Z,10.30
2022-08-05T05:57:05.271Z,12.58
2022-08-05T05:59:40.202Z,11.90
2022-08-05T06:02:13.410Z,12.07
2022-08-05T06:04:49.177Z,12.10
2022-08-05T06:07:22.391Z,11.93
2022-08-05T06:10:04.322Z,11.73
2022-08-05T06:12:30.309Z,12.93
2022-08-05T06:15:04.554Z,10.30
2022-08-05T06:17:52.959Z,10.98
2022-08-05T06:20:21.362Z,10.50
2022-08-05T06:22:49.227Z,11.57
2022-08-05T06:25:24.598Z,13.40
2022-08-05T06:28:12.353Z,10.00
2022-08-05T06:30:32.385Z,9.73
2022-08-05T06:33:10.051Z,10.55
2022-08-05T06:36:04.164Z,8.93
2022-08-05T06:38:16.133Z,10.40
2022-08-05T06:40:49.461Z,11.70
2022-08-05T06:43:58.875Z,9.48
2022-08-05T06:46:04.106Z,10.88
2022-08-05T06:48:53.641Z,9.13
2022-08-05T06:51:09.365Z,8.95
2022-08-05T06:53:41.494Z,9.13
2022-08-05T06:56:25.905Z,9.63
2022-08-05T06:58:51.168Z,9.88
2022-08-05T07:01:27.688Z,9.75
2022-08-05T07:03:58.643Z,8.65
2022-08-05T07:06:32.844Z,8.90
2022-08-05T07:09:05.956Z,9.05
2022-08-05T07:11:39.780Z,8.43
2022-08-05T07:17:58.903Z,8.40
2022-08-05T07:20:16.857Z,8.45
2022-08-05T07:22:15.761Z,9.05
2022-08-05T07:24:52.730Z,8.38
2022-08-05T07:27:22.672Z,8.65
2022-08-05T07:30:23.888Z,8.28
2022-08-05T07:32:40.297Z,8.00
2022-08-05T07:36:02.310Z,8.83
2022-08-05T07:37:51.245Z,7.37
2022-08-05T07:40:32.288Z,8.08
2022-08-05T07:43:04.757Z,8.23
2022-08-05T07:45:56.628Z,7.30
2022-08-05T07:48:10.068Z,8.20
2022-08-05T07:50:43.206Z,7.50
2022-08-05T07:53:17.799Z,7.92
2022-08-05T07:56:06.166Z,7.42
2022-08-05T07:58:57.649Z,7.25
2022-08-05T08:01:01.989Z,7.58
2022-08-05T08:03:44.401Z,7.62
2022-08-05T08:06:11.687Z,6.70
2022-08-05T08:08:44.551Z,7.73
2022-08-05T08:11:17.921Z,6.72
2022-08-05T08:14:00.599Z,7.50
2022-08-05T08:16:34.928Z,6.90
2022-08-05T08:19:02.994Z,6.62
2022-08-05T08:21:36.650Z,6.78
2022-08-05T08:24:14.142Z,7.35
2022-08-05T08:26:46.035Z,8.38
2022-08-05T08:30:03.367Z,6.90
2022-08-05T08:31:54.211Z,7.10
2022-08-05T08:34:30.569Z,7.78
2022-08-05T08:37:05.114Z,7.03
2022-08-05T08:39:38.242Z,8.13
2022-08-05T08:42:34.229Z,8.00
2022-08-05T08:45:23.123Z,8.00
2022-08-05T08:48:06.846Z,7.25
2022-08-05T08:50:06.142Z,9.75
2022-08-05T08:52:38.354Z,8.18
2022-08-05T08:55:13.128Z,10.05
2022-08-05T08:57:58.394Z,10.70
2022-08-05T09:00:23.813Z,9.13
2022-08-05T09:02:59.480Z,7.87
2022-08-05T09:05:38.847Z,8.38
2022-08-05T09:08:09.698Z,8.73
2022-08-05T09:10:46.765Z,9.58
2022-08-05T09:13:20.342Z,9.60
2022-08-05T09:15:55.322Z,12.35
2022-08-05T09:18:28.280Z,10.35
2022-08-05T09:21:03.214Z,8.98
2022-08-05T09:23:43.588Z,8.10
2022-08-05T09:26:20.555Z,8.65
2022-08-05T09:28:57.368Z,9.60
2022-08-05T09:32:40.300Z,11.63
2022-08-05T09:34:10.403Z,10.45
2022-08-05T09:36:56.412Z,9.48
2022-08-05T09:39:41.470Z,7.62
2022-08-05T09:42:04.931Z,6.75
2022-08-05T09:44:42.665Z,6.10
2022-08-05T09:47:21.944Z,6.40
2022-08-05T09:50:01.123Z,6.05
2022-08-05T09:52:45.122Z,5.72
2022-08-05T09:55:58.643Z,5.78
2022-08-05T09:57:48.565Z,6.30
2022-08-05T10:00:25.224Z,6.28
2022-08-05T10:02:59.170Z,6.47
2022-08-05T10:08:35.537Z,5.78
2022-08-05T10:10:53.851Z,6.05
2022-08-05T10:13:45.515Z,5.97
2022-08-05T10:16:33.838Z,5.50
2022-08-05T10:19:09.509Z,5.70
2022-08-05T10:21:41.505Z,5.80
2022-08-05T10:24:15.253Z,6.95
2022-08-05T10:26:52.884Z,7.87
2022-08-05T10:30:06.387Z,6.75
2022-08-05T10:32:52.053Z,6.05
2022-08-05T10:34:36.680Z,5.78
2022-08-05T10:37:13.365Z,8.43
2022-08-05T10:39:59.274Z,8.08
2022-08-05T10:42:33.771Z,8.88
2022-08-05T10:45:00.615Z,8.78
2022-08-05T10:47:37.660Z,7.08
2022-08-05T10:50:32.108Z,6.72
2022-08-05T10:52:55.029Z,7.22
2022-08-05T10:55:38.556Z,6.55
2022-08-05T10:58:12.033Z,7.53
2022-08-05T11:00:55.311Z,7.62
2022-08-05T11:03:27.076Z,8.20
2022-08-05T11:06:15.007Z,8.35
2022-08-05T11:09:31.930Z,7.80
2022-08-05T11:11:58.375Z,7.12
2022-08-05T11:15:00.981Z,7.10
2022-08-05T11:18:07.687Z,8.30
2022-08-05T11:20:18.410Z,8.03
2022-08-05T11:22:53.952Z,7.12
2022-08-05T11:26:05.070Z,7.92
2022-08-05T11:28:18.058Z,8.18
2022-08-05T11:31:05.866Z,8.40
2022-08-05T11:33:48.958Z,7.70
2022-08-05T11:36:34.654Z,10.75
2022-08-05T11:39:00.198Z,8.35
2022-08-05T11:42:00.649Z,8.55
2022-08-05T11:44:40.373Z,9.30
2022-08-05T11:47:09.970Z,9.50
2022-08-05T11:49:28.126Z,8.85
2022-08-05T11:52:08.429Z,8.93
2022-08-05T11:54:38.382Z,9.15
2022-08-05T11:57:24.910Z,10.03
2022-08-05T11:59:50.398Z,10.40
2022-08-05T12:02:31.603Z,10.05
2022-08-05T12:05:06.850Z,10.18
2022-08-05T12:08:03.360Z,12.13
2022-08-05T12:10:15.326Z,10.53
2022-08-05T12:12:59.942Z,11.57
2022-08-05T12:15:35.920Z,10.93
2022-08-05T12:18:09.928Z,9.83
2022-08-05T12:20:35.111Z,8.83
2022-08-05T12:23:14.305Z,9.28
2022-08-05T12:25:56.446Z,9.63
2022-08-05T12:28:39.955Z,8.30
2022-08-05T12:31:12.880Z,15.85
2022-08-05T12:33:48.426Z,9.75
2022-08-05T12:36:21.757Z,8.90
2022-08-05T12:38:57.655Z,8.80
2022-08-05T12:41:36.245Z,7.70
2022-08-05T12:44:14.213Z,8.30
2022-08-05T12:46:54.057Z,7.85
2022-08-05T12:49:27.155Z,7.28
2022-08-05T12:52:13.649Z,7.25
2022-08-05T12:54:38.239Z,7.17
2022-08-05T12:57:13.243Z,7.58
2022-08-05T13:01:57.369Z,7.40
2022-08-05T13:02:31.519Z,8.30
2022-08-05T13:05:08.142Z,8.18
2022-08-05T13:08:01.144Z,8.20
2022-08-05T13:10:20.459Z,7.35
2022-08-05T13:12:58.044Z,8.43
2022-08-05T13:15:41.574Z,7.85
2022-08-05T13:18:08.545Z,9.15
2022-08-05T13:20:41.470Z,9.00
2022-08-05T13:23:18.113Z,9.33
2022-08-05T13:25:59.228Z,8.23
2022-08-05T13:28:26.433Z,8.73
2022-08-05T13:30:59.388Z,8.63
2022-08-05T13:34:21.105Z,8.08
2022-08-05T13:36:09.331Z,8.15
2022-08-05T13:38:43.317Z,8.50
2022-08-05T13:41:16.799Z,8.13
2022-08-05T13:43:54.754Z,8.53
2022-08-05T13:46:43.836Z,8.05
2022-08-05T13:49:01.057Z,8.10
2022-08-05T13:51:40.090Z,8.18
2022-08-05T13:54:12.710Z,9.28
2022-08-05T13:56:50.876Z,8.73
2022-08-05T13:59:27.226Z,8.13
2022-08-05T14:02:01.000Z,8.73
2022-08-05T14:05:00.507Z,8.23
2022-08-05T14:07:59.964Z,8.28
2022-08-05T14:10:28.124Z,8.05
2022-08-05T14:13:01.724Z,7.78
2022-08-05T14:16:07.547Z,8.25
2022-08-05T14:18:15.063Z,7.65
2022-08-05T14:20:46.834Z,8.03
2022-08-05T14:23:25.803Z,8.63
2022-08-05T14:25:58.566Z,7.30
2022-08-05T14:28:32.340Z,8.25
2022-08-05T14:31:05.244Z,7.50
2022-08-05T14:34:00.027Z,9.05
2022-08-05T14:36:15.453Z,8.48
2022-08-05T14:38:48.304Z,8.55
2022-08-05T14:41:21.210Z,9.28
2022-08-05T14:44:02.194Z,8.73
2022-08-05T14:46:31.680Z,8.18
2022-08-05T14:49:08.054Z,9.20
2022-08-05T14:51:43.234Z,8.88
2022-08-05T14:54:29.989Z,8.38
2022-08-05T14:56:54.823Z,8.45
2022-08-05T14:59:29.539Z,8.78
2022-08-05T15:02:01.717Z,8.63
2022-08-05T15:04:36.487Z,8.93
2022-08-05T15:07:10.945Z,8.58
2022-08-05T15:09:51.658Z,8.78
2022-08-05T15:12:21.163Z,9.18
2022-08-05T15:14:56.140Z,9.55
2022-08-05T15:17:46.685Z,8.93
2022-08-05T15:20:03.700Z,8.93
2022-08-05T15:22:36.950Z,10.45
2022-08-05T15:25:14.153Z,9.58
2022-08-05T15:27:52.326Z,10.10
2022-08-05T15:30:20.730Z,8.95
2022-08-05T15:32:56.850Z,9.73
2022-08-05T15:35:36.175Z,9.20
2022-08-05T15:38:33.519Z,9.80
2022-08-05T15:41:00.919Z,10.38
2022-08-05T15:43:20.341Z,9.80
2022-08-05T15:45:59.804Z,10.15
2022-08-05T15:48:23.817Z,11.25
2022-08-05T15:50:57.059Z,9.27
2022-08-05T15:53:38.383Z,9.40
2022-08-05T15:56:11.579Z,10.13
2022-08-05T15:58:41.023Z,8.95
2022-08-05T16:01:17.860Z,8.93
2022-08-05T16:03:51.044Z,9.55
2022-08-05T16:06:24.759Z,9.08
2022-08-05T16:08:58.018Z,9.00
2022-08-05T16:11:43.036Z,8.85
2022-08-05T16:14:06.648Z,8.80
2022-08-05T16:16:39.617Z,10.05
2022-08-05T16:19:18.812Z,12.18
2022-08-05T16:22:01.087Z,12.03
2022-08-05T16:24:40.153Z,12.40
2022-08-05T16:27:02.352Z,10.68
2022-08-05T16:29:37.478Z,11.40
2022-08-05T16:32:10.671Z,11.22
2022-08-05T16:34:43.595Z,12.50
2022-08-05T16:38:02.655Z,17.23
2022-08-05T16:40:05.155Z,10.95
2022-08-05T16:42:27.522Z,9.93
2022-08-05T16:45:00.194Z,8.95
2022-08-05T16:47:36.329Z,10.38
2022-08-05T16:50:10.511Z,7.55
2022-08-05T16:52:45.944Z,7.60
2022-08-05T16:55:19.777Z,10.13
2022-08-05T16:58:01.677Z,21.50
2022-08-05T17:00:34.084Z,19.67
2022-08-05T17:03:03.778Z,8.50
2022-08-05T17:05:38.178Z,7.60
2022-08-05T17:08:11.479Z,7.07
2022-08-05T17:10:46.290Z,7.62
2022-08-05T17:13:21.608Z,8.48
2022-08-05T17:16:02.797Z,9.48
2022-08-05T17:18:29.985Z,14.10
2022-08-05T17:21:02.815Z,11.83
2022-08-05T17:24:03.122Z,10.53
2022-08-05T17:26:12.164Z,7.40
2022-08-05T17:28:47.270Z,8.33
2022-08-05T17:31:24.801Z,7.97
2022-08-05T17:33:57.736Z,9.63
2022-08-05T17:36:32.440Z,8.23
2022-08-05T17:39:05.728Z,7.90
2022-08-05T17:42:18.393Z,7.33
2022-08-05T17:44:16.477Z,8.20
2022-08-05T17:46:49.334Z,8.10
2022-08-05T17:49:23.800Z,7.97
2022-08-05T17:51:57.397Z,7.95
2022-08-05T17:54:31.813Z,7.95
2022-08-05T17:57:05.720Z,7.80
2022-08-05T17:59:40.319Z,7.12
2022-08-05T18:02:13.401Z,7.45
2022-08-05T18:04:51.183Z,7.20
2022-08-05T18:07:22.479Z,7.17
2022-08-05T18:09:59.663Z,11.28
2022-08-05T18:12:31.875Z,9.75
2022-08-05T18:15:08.857Z,8.20
2022-08-05T18:18:00.830Z,7.20
2022-08-05T18:20:16.517Z,7.85
2022-08-05T18:22:54.560Z,7.50
2022-08-05T18:25:25.039Z,7.85
2022-08-05T18:27:58.097Z,7.78
2022-08-05T18:30:30.879Z,7.33
2022-08-05T18:33:04.860Z,7.65
2022-08-05T18:35:59.738Z,6.83
2022-08-05T18:38:12.950Z,8.43
2022-08-05T18:41:56.551Z,8.35
2022-08-05T18:43:23.163Z,8.15
2022-08-05T18:48:32.957Z,9.38
2022-08-05T18:52:05.827Z,9.08
2022-08-05T18:53:57.662Z,8.03
2022-08-05T18:56:30.485Z,7.80
2022-08-05T18:59:41.900Z,7.65
2022-08-05T19:01:47.435Z,8.08
2022-08-05T19:04:14.200Z,7.25
2022-08-05T19:06:50.033Z,7.72
2022-08-05T19:09:22.971Z,9.48
2022-08-05T19:12:00.494Z,8.38
2022-08-05T19:14:53.551Z,8.95
2022-08-05T19:17:09.290Z,9.68
2022-08-05T19:19:46.896Z,8.43
2022-08-05T19:22:19.238Z,7.78
2022-08-05T19:24:56.717Z,7.00
2022-08-05T19:27:30.795Z,7.53
2022-08-05T19:30:05.446Z,7.90
2022-08-05T19:32:39.636Z,6.95
2022-08-05T19:35:13.289Z,8.28
2022-08-05T19:38:05.974Z,8.85
2022-08-05T19:40:24.285Z,8.58
2022-08-05T19:43:04.510Z,13.25
2022-08-05T19:45:33.285Z,10.78
2022-08-05T19:48:07.479Z,7.75
2022-08-05T19:50:41.990Z,8.70
2022-08-05T19:53:14.770Z,7.85
2022-08-05T19:56:14.452Z,7.45
2022-08-05T19:58:29.272Z,8.10
2022-08-05T20:00:57.765Z,8.15
2022-08-05T20:03:37.965Z,8.15
2022-08-05T20:06:11.692Z,7.58
2022-08-05T20:08:40.960Z,7.90
2022-08-05T20:11:18.103Z,6.90
2022-08-05T20:13:58.940Z,6.97
2022-08-05T20:16:25.017Z,7.50
2022-08-05T20:18:58.049Z,7.25
2022-08-05T20:21:32.613Z,7.67
2022-08-05T20:24:06.397Z,8.45
2022-08-05T20:26:39.508Z,7.95
2022-08-05T20:29:27.644Z,7.75
2022-08-05T20:31:53.464Z,7.95
2022-08-05T20:34:23.041Z,7.67
2022-08-05T20:36:56.233Z,8.40
2022-08-05T20:39:35.757Z,8.18
2022-08-05T20:42:03.452Z,8.38
2022-08-05T20:44:38.207Z,8.00
2022-08-05T20:47:11.023Z,8.05
2022-08-05T20:49:43.882Z,8.15
2022-08-05T20:52:17.772Z,8.18
2022-08-05T20:55:55.377Z,8.20
2022-08-05T20:57:42.641Z,8.80
2022-08-05T21:00:19.519Z,8.18
2022-08-05T21:02:39.486Z,8.73
2022-08-05T21:05:09.719Z,8.30
2022-08-05T21:07:50.711Z,8.73
2022-08-05T21:10:17.655Z,8.25
2022-08-05T21:12:57.993Z,8.55
2022-08-05T21:15:25.327Z,8.70
2022-08-05T21:17:59.823Z,8.00
2022-08-05T21:20:34.205Z,8.73
2022-08-05T21:23:07.748Z,7.72
2022-08-05T21:25:42.237Z,7.95
2022-08-05T21:28:18.733Z,8.30
2022-08-05T21:30:49.464Z,8.25
2022-08-05T21:33:23.568Z,7.92
2022-08-05T21:38:30.539Z,8.45
2022-08-05T21:41:03.586Z,17.45
2022-08-05T21:43:41.743Z,9.70
2022-08-05T21:46:12.169Z,8.38
2022-08-05T21:48:45.179Z,7.55
2022-08-05T21:52:16.457Z,7.78
2022-08-05T21:53:59.542Z,8.58
2022-08-05T21:56:26.813Z,7.83
2022-08-05T21:58:59.551Z,8.28
2022-08-05T22:01:35.499Z,7.35
2022-08-05T22:04:13.368Z,7.55
2022-08-05T22:06:50.551Z,8.18
2022-08-05T22:09:21.037Z,7.37
2022-08-05T22:11:53.197Z,7.70
2022-08-05T22:14:35.011Z,7.83
2022-08-05T22:17:04.896Z,7.55
2022-08-05T22:20:02.998Z,7.58
2022-08-05T22:22:12.901Z,6.87
2022-08-05T22:25:05.783Z,7.00
2022-08-05T22:28:08.742Z,7.62
2022-08-05T22:30:22.284Z,36.68
2022-08-05T22:32:55.140Z,39.03
2022-08-05T22:35:31.061Z,31.73
2022-08-05T22:38:03.135Z,22.17
2022-08-05T22:40:37.047Z,13.43
2022-08-05T22:45:44.512Z,9.58
2022-08-05T22:48:21.980Z,8.30
2022-08-05T22:50:56.286Z,8.13
2022-08-05T22:53:26.997Z,8.23
2022-08-05T22:56:01.425Z,9.58
2022-08-05T22:58:34.497Z,7.95
2022-08-05T23:01:09.027Z,7.42
2022-08-05T23:03:58.757Z,8.00
2022-08-05T23:06:17.058Z,7.15
2022-08-05T23:08:52.303Z,6.97
2022-08-05T23:11:25.221Z,7.37
2022-08-05T23:13:58.378Z,7.22
2022-08-05T23:19:26.117Z,8.28
2022-08-05T23:21:58.193Z,7.37
2022-08-05T23:24:31.744Z,7.95
2022-08-05T23:27:04.958Z,7.33
2022-08-05T23:29:37.842Z,7.70
2022-08-05T23:32:11.037Z,7.62
2022-08-05T23:34:43.998Z,7.25
2022-08-05T23:37:16.591Z,6.97
2022-08-05T23:39:54.192Z,7.65
2022-08-05T23:42:29.301Z,7.37
2022-08-05T23:44:59.387Z,7.65
2022-08-05T23:47:33.534Z,8.83
2022-08-05T23:50:09.501Z,8.00
2022-08-05T23:52:49.511Z,8.00
2022-08-05T23:55:16.769Z,8.55
2022-08-05T23:57:51.204Z,7.70
